Etusivu
METAR-TAF:

METAR-TAF

Lentoasemat :

Area_Regional_Airport

South Haven, Michigan, Yhdysvallat

Leveyspiiri: 42-21-03N, Pituuspiiri: 086-15-22W, korkeus merenpinnasta: 203 m

Tämänhetkinen sää

Tämä raportti tehtiin 23 minuuttia sitten, kello 09.56 UTC
Tuuli 9 kn pohjoisesta
Lämpötila 4°C
Kosteus 65%
Ilmanpaine 1008 hPa
Näkyvyys: 16.1 km
selkeää

METAR: KLWA 200956Z AUTO 01009KT 10SM CLR 04/M02 A2976 RMK AO2 T00401020

Aika: 06:19 (10:19 UTC)


TAF: puuttuu

Säähavainnot ja -ennusteet yli 4000 lentoasemalta (METAR- ja TAF-raportit).

Käytössä olevat sääasemat on merkitty karttaan keltaisilla ja punaisilla pisteillä.

Aseta hiiri pisteen päälle nähdäksesi sääaseman nimen.

Klikkaa sitten nähdäksesi säähavainnot ja -ennusteet.

Kartan vaihtaminen: klikkaa mustalla rastilla varustettuja vihreitä pisteitä, niin voit zoomata sisään; viivalla varustettua vihreää pistettä, niin voit zoomata ulos tai vihreitä nuolia, niin pääset viereisille kartoille.


METAR-TAF: